createdAt,value
2023-04-11T00:00:40.782Z,76.91
2023-04-11T00:01:40.948Z,78.45
2023-04-11T00:02:40.998Z,80.40
2023-04-11T00:03:41.006Z,83.13
2023-04-11T00:04:41.552Z,86.84
2023-04-11T00:05:41.359Z,85.59
2023-04-11T00:06:40.957Z,87.44
2023-04-11T00:07:41.034Z,88.96
2023-04-11T00:08:41.075Z,90.80
2023-04-11T00:09:41.143Z,93.76
2023-04-11T00:10:41.724Z,92.80
2023-04-11T00:11:41.204Z,90.06
2023-04-11T00:12:41.213Z,91.34
2023-04-11T00:13:41.929Z,97.09
2023-04-11T00:14:41.382Z,96.33
2023-04-11T00:15:41.321Z,98.77
2023-04-11T00:16:41.560Z,99.73
2023-04-11T00:17:41.612Z,100.99
2023-04-11T00:18:41.547Z,100.15
2023-04-11T00:19:41.612Z,101.26
2023-04-11T00:20:41.529Z,104.29
2023-04-11T00:21:41.635Z,102.89
2023-04-11T00:22:41.739Z,103.86
2023-04-11T00:23:41.740Z,105.01
2023-04-11T00:24:41.794Z,106.46
2023-04-11T00:25:41.772Z,106.30
2023-04-11T00:26:41.881Z,105.89
2023-04-11T00:27:41.777Z,109.10
2023-04-11T00:28:41.828Z,109.07
2023-04-11T00:29:41.956Z,108.70
2023-04-11T00:30:41.932Z,111.90
2023-04-11T00:31:42.096Z,112.94
2023-04-11T00:32:42.025Z,112.62
2023-04-11T00:33:42.120Z,113.79
2023-04-11T00:34:42.078Z,109.37
2023-04-11T00:35:42.199Z,112.49
2023-04-11T00:36:42.212Z,113.22
2023-04-11T00:37:42.289Z,115.17
2023-04-11T00:38:42.311Z,118.19
2023-04-11T00:39:42.293Z,116.40
2023-04-11T00:40:42.320Z,112.16
2023-04-11T00:41:42.425Z,116.89
2023-04-11T00:42:42.467Z,114.99
2023-04-11T00:43:42.496Z,118.38
2023-04-11T00:44:42.504Z,115.07
2023-04-11T00:45:42.425Z,116.70
2023-04-11T00:46:43.616Z,116.49
2023-04-11T00:47:42.682Z,120.15
2023-04-11T00:48:42.632Z,117.49
2023-04-11T00:49:42.689Z,117.67
2023-04-11T00:50:42.576Z,120.76
2023-04-11T00:51:42.804Z,117.25
2023-04-11T00:52:42.669Z,121.23
2023-04-11T00:53:42.796Z,119.76
2023-04-11T00:54:42.819Z,122.66
2023-04-11T00:55:42.828Z,117.60
2023-04-11T00:56:42.916Z,120.07
2023-04-11T00:57:42.950Z,123.66
2023-04-11T00:58:42.956Z,122.07
2023-04-11T00:59:43.026Z,119.44
2023-04-11T01:00:42.923Z,121.22
2023-04-11T01:01:43.082Z,122.69
2023-04-11T01:02:43.275Z,120.62
2023-04-11T01:03:43.002Z,121.30
2023-04-11T01:04:43.161Z,119.47
2023-04-11T01:05:43.056Z,122.15
2023-04-11T01:06:43.174Z,120.81
2023-04-11T01:07:43.099Z,122.57
2023-04-11T01:08:43.243Z,123.08
2023-04-11T01:09:43.187Z,120.09
2023-04-11T01:10:43.221Z,121.39
2023-04-11T01:11:43.236Z,122.56
2023-04-11T01:12:43.310Z,122.18
2023-04-11T01:13:43.345Z,123.91
2023-04-11T01:14:43.424Z,124.13
2023-04-11T01:15:43.449Z,123.81
2023-04-11T01:16:43.395Z,125.36
2023-04-11T01:17:43.991Z,122.68
2023-04-11T01:18:43.366Z,122.56
2023-04-11T01:19:43.417Z,124.00
2023-04-11T01:20:43.392Z,126.99
2023-04-11T01:21:43.478Z,124.60
2023-04-11T01:22:43.589Z,126.42
2023-04-11T01:23:43.598Z,123.07
2023-04-11T01:24:43.639Z,123.97
2023-04-11T01:25:43.919Z,124.52
2023-04-11T01:26:43.712Z,125.42
2023-04-11T01:27:43.735Z,124.90
2023-04-11T01:28:43.738Z,126.28
2023-04-11T01:29:43.679Z,126.46
2023-04-11T01:30:43.728Z,123.93
2023-04-11T01:31:43.800Z,128.70
2023-04-11T01:32:43.864Z,128.64
2023-04-11T01:33:43.765Z,126.43
2023-04-11T01:34:43.829Z,127.09
2023-04-11T01:35:43.848Z,126.05
2023-04-11T01:36:48.920Z,127.03
2023-04-11T01:37:43.841Z,127.11
2023-04-11T01:38:43.934Z,127.15
2023-04-11T01:39:43.908Z,127.52
2023-04-11T01:40:43.801Z,127.39
2023-04-11T01:41:43.927Z,128.20
2023-04-11T01:42:43.922Z,128.70
2023-04-11T01:43:43.838Z,128.59
2023-04-11T01:44:43.763Z,127.22
2023-04-11T01:45:43.800Z,125.66
2023-04-11T01:46:43.840Z,128.25
2023-04-11T01:47:44.023Z,127.03
2023-04-11T01:48:44.071Z,124.22
2023-04-11T01:49:44.091Z,127.19
2023-04-11T01:50:43.913Z,126.17
2023-04-11T01:51:44.044Z,123.81
2023-04-11T01:52:43.995Z,127.24
2023-04-11T01:53:44.055Z,128.19
2023-04-11T01:54:44.110Z,132.11
2023-04-11T01:55:44.015Z,128.87
2023-04-11T01:56:44.023Z,126.38
2023-04-11T01:57:44.175Z,126.45
2023-04-11T01:58:44.066Z,128.15
2023-04-11T01:59:44.261Z,129.37
2023-04-11T02:00:44.185Z,125.81
2023-04-11T02:01:44.423Z,127.60
2023-04-11T02:02:44.307Z,128.01
2023-04-11T02:03:44.311Z,126.48
2023-04-11T02:04:44.221Z,126.47
2023-04-11T02:05:44.218Z,128.27
2023-04-11T02:06:44.295Z,129.57
2023-04-11T02:07:44.255Z,126.94
2023-04-11T02:08:44.310Z,129.21
2023-04-11T02:09:44.315Z,130.18
2023-04-11T02:10:44.366Z,128.46
2023-04-11T02:11:44.378Z,129.83
2023-04-11T02:12:44.402Z,129.10
2023-04-11T02:13:44.396Z,129.10
2023-04-11T02:14:44.464Z,128.87
2023-04-11T02:15:44.508Z,127.38
2023-04-11T02:16:44.466Z,126.62
2023-04-11T02:17:44.510Z,128.57
2023-04-11T02:18:44.479Z,127.39
2023-04-11T02:19:44.539Z,127.30
2023-04-11T02:20:44.539Z,130.45
2023-04-11T02:21:44.536Z,129.14
2023-04-11T02:22:44.590Z,126.88
2023-04-11T02:23:44.569Z,127.41
2023-04-11T02:24:44.621Z,127.80
2023-04-11T02:25:44.642Z,127.03
2023-04-11T02:26:44.674Z,128.93
2023-04-11T02:27:44.673Z,130.64
2023-04-11T02:28:44.734Z,129.67
2023-04-11T02:29:44.799Z,130.97
2023-04-11T02:30:44.919Z,128.11
2023-04-11T02:31:44.939Z,128.75
2023-04-11T02:32:44.889Z,131.13
2023-04-11T02:33:44.849Z,127.57
2023-04-11T02:34:44.875Z,127.87
2023-04-11T02:35:44.954Z,128.36
2023-04-11T02:36:44.932Z,129.15
2023-04-11T02:37:44.963Z,130.42
2023-04-11T02:38:45.008Z,128.65
2023-04-11T02:39:44.964Z,128.30
2023-04-11T02:40:44.991Z,130.68
2023-04-11T02:41:45.002Z,128.33
2023-04-11T02:42:45.036Z,129.45
2023-04-11T02:43:45.064Z,128.45
2023-04-11T02:44:45.081Z,127.76
2023-04-11T02:45:45.087Z,128.26
2023-04-11T02:46:45.141Z,129.42
2023-04-11T02:47:45.179Z,127.29
2023-04-11T02:48:45.146Z,128.62
2023-04-11T02:49:45.154Z,126.29
2023-04-11T02:50:45.194Z,127.77
2023-04-11T02:51:45.189Z,131.28
2023-04-11T02:52:47.680Z,128.34
2023-04-11T02:53:45.403Z,130.15
2023-04-11T02:54:45.465Z,130.01
2023-04-11T02:55:45.454Z,131.56
2023-04-11T02:56:45.519Z,128.13
2023-04-11T02:57:45.509Z,130.02
2023-04-11T02:58:45.508Z,127.42
2023-04-11T02:59:45.566Z,130.37
2023-04-11T03:00:45.572Z,129.21
2023-04-11T03:01:45.733Z,130.36
2023-04-11T03:02:45.628Z,130.05
2023-04-11T03:03:45.636Z,129.28
2023-04-11T03:04:45.614Z,129.78
2023-04-11T03:05:45.670Z,129.02
2023-04-11T03:06:45.684Z,129.02
2023-04-11T03:07:45.636Z,128.67
2023-04-11T03:08:45.663Z,129.28
2023-04-11T03:09:45.700Z,131.04
2023-04-11T03:10:45.740Z,129.23
2023-04-11T03:11:47.328Z,128.41
2023-04-11T03:12:45.792Z,131.39
2023-04-11T03:13:45.796Z,128.57
2023-04-11T03:14:45.761Z,131.96
2023-04-11T03:15:45.831Z,131.62
2023-04-11T03:16:45.810Z,129.90
2023-04-11T03:17:45.892Z,131.02
2023-04-11T03:18:45.850Z,127.61
2023-04-11T03:19:45.842Z,130.97
2023-04-11T03:20:45.879Z,130.67
2023-04-11T03:21:45.910Z,129.35
2023-04-11T03:22:45.893Z,129.39
2023-04-11T03:23:45.965Z,129.25
2023-04-11T03:24:45.898Z,131.00
2023-04-11T03:25:45.901Z,127.33
2023-04-11T03:26:45.908Z,129.53
2023-04-11T03:27:45.917Z,128.03
2023-04-11T03:28:45.919Z,130.18
2023-04-11T03:29:45.957Z,128.45
2023-04-11T03:30:45.966Z,129.06
2023-04-11T03:31:46.026Z,128.51
2023-04-11T03:32:46.103Z,132.29
2023-04-11T03:33:46.031Z,130.87
2023-04-11T03:34:46.043Z,130.03
2023-04-11T03:35:46.069Z,128.43
2023-04-11T03:36:46.098Z,128.22
2023-04-11T03:37:46.104Z,130.54
2023-04-11T03:38:46.134Z,128.15
2023-04-11T03:39:46.115Z,131.66
2023-04-11T03:40:46.133Z,132.65
2023-04-11T03:41:46.269Z,130.27
2023-04-11T03:42:46.198Z,127.63
2023-04-11T03:43:46.255Z,126.87
2023-04-11T03:44:46.286Z,127.43
2023-04-11T03:45:46.302Z,130.74
2023-04-11T03:46:46.386Z,126.29
2023-04-11T03:47:46.405Z,130.50
2023-04-11T03:48:46.365Z,128.94
2023-04-11T03:49:46.405Z,127.98
2023-04-11T03:50:46.382Z,128.08
2023-04-11T03:51:46.442Z,130.24
2023-04-11T03:52:46.391Z,128.21
2023-04-11T03:53:46.487Z,129.43
2023-04-11T03:54:47.792Z,129.35
2023-04-11T03:55:46.481Z,129.77
2023-04-11T03:56:46.501Z,129.97
2023-04-11T03:57:46.513Z,132.73
2023-04-11T03:58:46.542Z,130.94
2023-04-11T03:59:46.573Z,126.90
2023-04-11T04:00:46.585Z,131.93
2023-04-11T04:01:46.717Z,128.00
2023-04-11T04:02:46.786Z,130.51
2023-04-11T04:03:46.804Z,128.93
2023-04-11T04:04:46.821Z,128.94
2023-04-11T04:05:46.686Z,134.13
2023-04-11T04:06:46.733Z,130.19
2023-04-11T04:07:46.720Z,130.54
2023-04-11T04:08:46.733Z,129.90
2023-04-11T04:09:46.741Z,127.99
2023-04-11T04:10:46.801Z,124.18
2023-04-11T04:11:46.804Z,116.22
2023-04-11T04:12:46.811Z,112.32
2023-04-11T04:13:46.820Z,111.92
2023-04-11T04:14:46.837Z,110.65
2023-04-11T04:15:46.836Z,107.37
2023-04-11T04:16:46.999Z,106.96
2023-04-11T04:17:46.933Z,104.95
2023-04-11T04:18:46.903Z,100.86
2023-04-11T04:19:46.918Z,101.17
2023-04-11T04:20:46.967Z,97.22
2023-04-11T04:21:46.950Z,94.45
2023-04-11T04:22:46.974Z,93.92
2023-04-11T04:23:47.040Z,92.34
2023-04-11T04:24:47.040Z,92.70
2023-04-11T04:25:47.061Z,94.23
2023-04-11T04:26:47.061Z,91.64
2023-04-11T04:27:47.069Z,88.29
2023-04-11T04:28:47.083Z,86.61
2023-04-11T04:29:47.475Z,84.93
2023-04-11T04:30:47.098Z,85.06
2023-04-11T04:31:47.151Z,81.16
2023-04-11T04:32:47.105Z,81.96
2023-04-11T04:33:47.120Z,78.12
2023-04-11T04:34:47.196Z,77.27
2023-04-11T04:35:47.069Z,78.43
2023-04-11T04:36:47.079Z,75.92
2023-04-11T04:37:47.086Z,78.25
2023-04-11T04:38:47.064Z,80.97
2023-04-11T04:39:47.043Z,74.96
2023-04-11T04:40:48.394Z,79.77
2023-04-11T04:41:47.205Z,82.26
2023-04-11T04:42:47.196Z,78.68
2023-04-11T04:43:47.232Z,76.85
2023-04-11T04:44:47.233Z,79.18
2023-04-11T04:45:47.290Z,83.41
2023-04-11T04:46:47.295Z,82.05
2023-04-11T04:47:47.326Z,83.05
2023-04-11T04:48:47.369Z,83.65
2023-04-11T04:49:47.354Z,83.57
2023-04-11T04:50:47.376Z,83.38
2023-04-11T04:51:47.379Z,85.22
2023-04-11T04:52:47.455Z,84.31
2023-04-11T04:53:47.456Z,83.11
2023-04-11T04:54:47.497Z,84.38
2023-04-11T04:55:47.522Z,87.31
2023-04-11T04:56:47.564Z,86.98
2023-04-11T04:57:47.564Z,87.51
2023-04-11T04:58:47.615Z,86.29
2023-04-11T04:59:47.647Z,86.66
2023-04-11T05:00:47.699Z,84.24
2023-04-11T05:01:47.854Z,81.36
2023-04-11T05:02:47.863Z,81.11
2023-04-11T05:03:47.866Z,77.56
2023-04-11T05:04:47.801Z,82.03
2023-04-11T05:05:47.824Z,76.42
2023-04-11T05:06:47.848Z,75.34
2023-04-11T05:07:47.838Z,73.40
2023-04-11T05:08:47.857Z,70.28
2023-04-11T05:09:47.898Z,70.59
2023-04-11T05:10:47.899Z,69.27
2023-04-11T05:11:47.956Z,71.55
2023-04-11T05:12:48.006Z,77.25
2023-04-11T05:13:47.992Z,72.02
2023-04-11T05:14:48.041Z,69.86
2023-04-11T05:15:48.077Z,72.33
2023-04-11T05:16:48.170Z,70.96
2023-04-11T05:17:48.160Z,73.47
2023-04-11T05:18:48.186Z,74.36
2023-04-11T05:19:48.131Z,74.45
2023-04-11T05:20:48.170Z,76.06
2023-04-11T05:21:48.229Z,76.64
2023-04-11T05:22:48.322Z,73.51
2023-04-11T05:23:48.266Z,76.18
2023-04-11T05:24:48.291Z,74.88
2023-04-11T05:25:48.287Z,75.69
2023-04-11T05:26:48.349Z,76.37
2023-04-11T05:27:48.385Z,79.89
2023-04-11T05:28:48.370Z,82.54
2023-04-11T05:29:48.404Z,90.68
2023-04-11T05:30:48.488Z,92.81
2023-04-11T05:31:55.489Z,98.13
2023-04-11T05:32:48.557Z,98.46
2023-04-11T05:33:48.562Z,99.27
2023-04-11T05:34:48.550Z,103.84
2023-04-11T05:35:48.550Z,107.67
2023-04-11T05:36:48.494Z,109.58
2023-04-11T05:37:48.498Z,108.48
2023-04-11T05:38:48.439Z,106.10
2023-04-11T05:39:48.445Z,101.44
2023-04-11T05:40:48.420Z,98.22
2023-04-11T05:41:48.416Z,94.67
2023-04-11T05:42:48.393Z,87.83
2023-04-11T05:43:48.405Z,87.24
2023-04-11T05:44:48.441Z,86.75
2023-04-11T05:45:48.408Z,85.72
2023-04-11T05:46:48.383Z,87.54
2023-04-11T05:47:48.434Z,90.28
2023-04-11T05:48:48.408Z,90.33
2023-04-11T05:49:48.575Z,91.85
2023-04-11T05:50:48.355Z,94.25
2023-04-11T05:51:48.383Z,93.84
2023-04-11T05:52:48.367Z,96.72
2023-04-11T05:53:48.538Z,100.91
2023-04-11T05:54:48.380Z,93.27
2023-04-11T05:55:48.331Z,91.56
2023-04-11T05:56:48.315Z,87.14
2023-04-11T05:57:48.334Z,84.24
2023-04-11T05:58:49.334Z,84.41
2023-04-11T05:59:48.262Z,84.37
2023-04-11T06:00:48.294Z,85.45
2023-04-11T06:01:55.494Z,85.46
2023-04-11T06:02:48.641Z,84.56
2023-04-11T06:03:48.495Z,85.15
2023-04-11T06:04:48.246Z,83.20
2023-04-11T06:05:48.314Z,77.79
2023-04-11T06:06:48.970Z,69.21
2023-04-11T06:07:48.250Z,65.06
2023-04-11T06:08:48.206Z,59.60
2023-04-11T06:09:48.479Z,60.77
2023-04-11T06:10:48.208Z,61.64
2023-04-11T06:11:48.584Z,57.18
2023-04-11T06:12:48.207Z,52.88
2023-04-11T06:13:48.207Z,53.76
2023-04-11T06:14:48.496Z,48.81
2023-04-11T06:15:48.247Z,43.50
2023-04-11T06:16:48.201Z,33.08
2023-04-11T06:17:48.250Z,28.62
2023-04-11T06:18:48.164Z,23.86
2023-04-11T06:19:48.557Z,25.00
2023-04-11T06:20:48.130Z,28.62
2023-04-11T06:21:48.323Z,28.67
2023-04-11T06:22:48.127Z,25.00
2023-04-11T06:23:48.092Z,27.07
2023-04-11T06:24:48.480Z,27.90
2023-04-11T06:25:48.144Z,32.64
2023-04-11T06:26:48.176Z,34.09
2023-04-11T06:27:48.081Z,32.34
2023-04-11T06:28:48.083Z,38.62
2023-04-11T06:29:48.081Z,40.65
2023-04-11T06:30:48.546Z,42.98
2023-04-11T06:31:48.216Z,43.08
2023-04-11T06:32:48.074Z,42.97
2023-04-11T06:33:48.039Z,43.84
2023-04-11T06:34:48.077Z,44.51
2023-04-11T06:35:48.611Z,53.76
2023-04-11T06:36:48.042Z,49.02
2023-04-11T06:37:48.090Z,50.08
2023-04-11T06:38:49.026Z,52.45
2023-04-11T06:39:48.013Z,46.76
2023-04-11T06:40:48.476Z,47.80
2023-04-11T06:41:48.076Z,49.90
2023-04-11T06:42:48.081Z,52.04
2023-04-11T06:43:48.088Z,50.28
2023-04-11T06:44:48.112Z,54.73
2023-04-11T06:45:48.621Z,60.25
2023-04-11T06:46:48.203Z,61.90
2023-04-11T06:47:48.199Z,66.49
2023-04-11T06:48:48.190Z,67.28
2023-04-11T06:49:48.244Z,70.93
2023-04-11T06:50:49.049Z,75.43
2023-04-11T06:51:48.281Z,77.63
2023-04-11T06:52:48.347Z,76.47
2023-04-11T06:53:48.363Z,75.87
2023-04-11T06:54:48.375Z,73.07
2023-04-11T06:55:48.581Z,69.42
2023-04-11T06:56:48.444Z,73.88
2023-04-11T06:57:48.490Z,72.97
2023-04-11T06:58:48.495Z,74.72
2023-04-11T06:59:48.507Z,78.42
2023-04-11T07:00:49.021Z,77.16
2023-04-11T07:01:48.740Z,81.09
2023-04-11T07:02:48.989Z,86.86
2023-04-11T07:03:49.095Z,81.65
2023-04-11T07:04:48.712Z,82.02
2023-04-11T07:05:48.687Z,83.60
2023-04-11T07:06:48.703Z,83.72
2023-04-11T07:07:48.805Z,85.89
2023-04-11T07:08:48.769Z,88.26
2023-04-11T07:09:48.801Z,88.10
2023-04-11T07:10:48.795Z,87.18
2023-04-11T07:11:48.793Z,90.49
2023-04-11T07:12:48.904Z,92.83
2023-04-11T07:13:49.014Z,89.77
2023-04-11T07:14:48.913Z,88.10
2023-04-11T07:15:48.953Z,85.83
2023-04-11T07:16:48.981Z,90.18
2023-04-11T07:17:51.445Z,93.35
2023-04-11T07:18:49.556Z,91.64
2023-04-11T07:19:48.978Z,90.62
2023-04-11T07:20:48.977Z,92.55
2023-04-11T07:21:48.983Z,90.36
2023-04-11T07:22:48.973Z,88.57
2023-04-11T07:23:49.022Z,70.03
2023-04-11T07:24:48.934Z,62.40
2023-04-11T07:25:48.941Z,47.13
2023-04-11T07:26:48.932Z,43.70
2023-04-11T07:27:48.995Z,35.92
2023-04-11T07:28:48.910Z,34.30
2023-04-11T07:29:48.873Z,32.53
2023-04-11T07:30:48.912Z,33.01
2023-04-11T07:31:48.929Z,39.43
2023-04-11T07:32:48.913Z,35.00
2023-04-11T07:33:48.881Z,39.81
2023-04-11T07:34:48.847Z,43.93
2023-04-11T07:35:48.913Z,41.54
2023-04-11T07:36:48.861Z,41.54
2023-04-11T07:37:48.882Z,32.54
2023-04-11T07:38:48.820Z,31.57
2023-04-11T07:39:48.811Z,28.76
2023-04-11T07:40:48.837Z,32.78
2023-04-11T07:41:48.784Z,41.69
2023-04-11T07:42:49.039Z,42.24
2023-04-11T07:43:48.802Z,53.37
2023-04-11T07:44:48.816Z,54.29
2023-04-11T07:45:48.771Z,55.30
2023-04-11T07:46:48.748Z,60.96
2023-04-11T07:47:48.811Z,51.02
2023-04-11T07:48:48.791Z,50.86
2023-04-11T07:49:48.738Z,36.07
2023-04-11T07:50:48.747Z,25.00
2023-04-11T07:51:48.749Z,26.61
2023-04-11T07:52:48.994Z,27.59
2023-04-11T07:53:48.719Z,26.76
2023-04-11T07:54:48.696Z,36.88
2023-04-11T07:55:48.710Z,43.11
2023-04-11T07:56:48.740Z,46.01
2023-04-11T07:57:48.686Z,49.45
2023-04-11T07:58:48.709Z,59.19
2023-04-11T07:59:48.691Z,61.48
2023-04-11T08:00:48.662Z,66.40
2023-04-11T08:01:48.847Z,54.99
2023-04-11T08:02:48.735Z,56.17
2023-04-11T08:03:48.771Z,51.50
2023-04-11T08:04:48.724Z,46.83
2023-04-11T08:05:48.645Z,46.88
2023-04-11T08:06:48.606Z,47.27
2023-04-11T08:07:48.663Z,48.93
2023-04-11T08:08:48.609Z,47.61
2023-04-11T08:09:48.586Z,44.44
2023-04-11T08:10:50.075Z,51.58
2023-04-11T08:11:48.574Z,48.17
2023-04-11T08:12:49.206Z,50.06
2023-04-11T08:13:48.602Z,53.44
2023-04-11T08:14:49.041Z,48.85
2023-04-11T08:15:49.017Z,30.46
2023-04-11T08:16:50.431Z,25.00
2023-04-11T08:17:49.066Z,25.04
2023-04-11T08:18:48.544Z,25.84
2023-04-11T08:19:48.558Z,16.79
2023-04-11T08:20:48.563Z,11.59
2023-04-11T08:21:48.529Z,11.67
2023-04-11T08:22:48.495Z,25.00
2023-04-11T08:23:48.504Z,29.30
2023-04-11T08:24:48.494Z,25.00
2023-04-11T08:25:48.739Z,39.04
2023-04-11T08:26:48.484Z,30.40
2023-04-11T08:27:48.530Z,36.05
2023-04-11T08:28:48.562Z,37.26
2023-04-11T08:29:48.561Z,40.24
2023-04-11T08:30:48.528Z,36.01
2023-04-11T08:31:48.473Z,40.60
2023-04-11T08:32:48.457Z,41.55
2023-04-11T08:33:48.438Z,39.52
2023-04-11T08:34:48.437Z,42.30
2023-04-11T08:35:48.442Z,42.75
2023-04-11T08:36:48.456Z,44.47
2023-04-11T08:37:48.379Z,42.65
2023-04-11T08:38:48.655Z,46.31
2023-04-11T08:39:48.417Z,50.01
2023-04-11T08:40:48.380Z,53.98
2023-04-11T08:41:49.100Z,55.75
2023-04-11T08:42:48.393Z,64.80
2023-04-11T08:43:48.564Z,74.01
2023-04-11T08:44:51.150Z,78.74
2023-04-11T08:45:48.364Z,86.93
2023-04-11T08:46:48.376Z,86.97
2023-04-11T08:47:48.396Z,88.65
2023-04-11T08:48:48.544Z,93.90
2023-04-11T08:49:48.317Z,89.98
2023-04-11T08:50:48.330Z,90.00
2023-04-11T08:51:48.288Z,86.16
2023-04-11T08:52:48.427Z,92.31
2023-04-11T08:53:48.576Z,88.53
2023-04-11T08:54:48.267Z,86.58
2023-04-11T08:55:48.297Z,85.60
2023-04-11T08:56:48.253Z,85.21
2023-04-11T08:57:48.283Z,85.78
2023-04-11T08:58:48.246Z,89.18
2023-04-11T08:59:48.274Z,82.98
2023-04-11T09:00:48.260Z,82.17
2023-04-11T09:01:48.259Z,87.26
2023-04-11T09:02:48.257Z,81.85
2023-04-11T09:03:48.191Z,82.78
2023-04-11T09:04:48.179Z,78.36
2023-04-11T09:05:48.588Z,83.12
2023-04-11T09:06:48.185Z,80.85
2023-04-11T09:07:48.164Z,74.39
2023-04-11T09:08:48.154Z,75.44
2023-04-11T09:09:48.176Z,79.37
2023-04-11T09:10:48.554Z,78.62
2023-04-11T09:11:48.106Z,77.09
2023-04-11T09:12:48.207Z,76.27
2023-04-11T09:13:48.111Z,77.43
2023-04-11T09:14:48.314Z,80.11
2023-04-11T09:15:48.114Z,78.21
2023-04-11T09:16:48.085Z,82.96
2023-04-11T09:17:48.163Z,85.86
2023-04-11T09:18:48.084Z,79.47
2023-04-11T09:19:49.595Z,76.11
2023-04-11T09:20:48.048Z,82.22
2023-04-11T09:21:48.063Z,79.34
2023-04-11T09:22:48.021Z,80.84
2023-04-11T09:23:48.028Z,77.93
2023-04-11T09:24:48.085Z,82.70
2023-04-11T09:25:48.059Z,80.07
2023-04-11T09:26:48.090Z,83.02
2023-04-11T09:27:47.990Z,89.23
2023-04-11T09:28:47.994Z,84.73
2023-04-11T09:29:48.027Z,83.56
2023-04-11T09:30:48.084Z,79.84
2023-04-11T09:31:48.038Z,85.98
2023-04-11T09:32:47.988Z,87.87
2023-04-11T09:33:47.999Z,91.98
2023-04-11T09:34:48.564Z,89.17
2023-04-11T09:35:47.982Z,93.08
2023-04-11T09:36:48.086Z,95.30
2023-04-11T09:37:48.061Z,90.16
2023-04-11T09:38:47.960Z,87.15
2023-04-11T09:39:47.926Z,88.61
2023-04-11T09:40:47.906Z,87.11
2023-04-11T09:41:47.913Z,90.69
2023-04-11T09:42:47.905Z,95.38
2023-04-11T09:43:48.108Z,97.39
2023-04-11T09:44:48.028Z,101.35
2023-04-11T09:45:54.578Z,104.46
2023-04-11T09:46:51.608Z,104.55
2023-04-11T09:47:48.056Z,104.80
2023-04-11T09:48:47.952Z,105.83
2023-04-11T09:49:47.969Z,109.73
2023-04-11T09:50:47.947Z,116.69
2023-04-11T09:51:48.069Z,126.61
2023-04-11T09:52:47.954Z,132.71
2023-04-11T09:53:47.985Z,133.53
2023-04-11T09:54:47.926Z,138.52
2023-04-11T09:55:48.077Z,149.98
2023-04-11T09:56:47.942Z,164.60
2023-04-11T09:57:47.895Z,175.13
2023-04-11T09:58:47.889Z,181.68
2023-04-11T09:59:47.868Z,186.45
2023-04-11T10:00:47.909Z,192.37
2023-04-11T10:01:47.942Z,196.16
2023-04-11T10:02:48.011Z,202.06
2023-04-11T10:03:47.909Z,204.42
2023-04-11T10:04:47.887Z,209.05
2023-04-11T10:05:49.882Z,208.82
2023-04-11T10:06:47.850Z,214.37
2023-04-11T10:07:47.799Z,204.87
2023-04-11T10:08:47.811Z,202.94
2023-04-11T10:09:47.831Z,200.70
2023-04-11T10:10:47.843Z,203.07
2023-04-11T10:11:47.804Z,208.44
2023-04-11T10:12:47.785Z,208.66
2023-04-11T10:13:47.794Z,213.11
2023-04-11T10:14:47.743Z,213.48
2023-04-11T10:15:47.809Z,201.34
2023-04-11T10:16:47.915Z,198.27
2023-04-11T10:17:47.893Z,199.59
2023-04-11T10:18:47.891Z,197.18
2023-04-11T10:19:47.906Z,195.45
2023-04-11T10:20:47.962Z,188.31
2023-04-11T10:21:48.108Z,189.23
2023-04-11T10:22:48.017Z,190.12
2023-04-11T10:23:48.070Z,179.13
2023-04-11T10:24:48.081Z,180.85
2023-04-11T10:25:48.603Z,179.12
2023-04-11T10:26:48.154Z,180.67
2023-04-11T10:27:48.209Z,175.75
2023-04-11T10:28:48.213Z,175.91
2023-04-11T10:29:50.744Z,171.76
2023-04-11T10:30:48.218Z,176.37
2023-04-11T10:31:48.586Z,168.69
2023-04-11T10:32:48.241Z,168.54
2023-04-11T10:33:48.158Z,165.63
2023-04-11T10:34:48.191Z,165.10
2023-04-11T10:35:48.212Z,163.44
2023-04-11T10:36:48.624Z,169.24
2023-04-11T10:37:48.173Z,179.20
2023-04-11T10:38:48.248Z,178.17
2023-04-11T10:39:48.123Z,174.73
2023-04-11T10:40:48.131Z,167.49
2023-04-11T10:41:48.688Z,174.60
2023-04-11T10:42:48.158Z,175.35
2023-04-11T10:43:48.116Z,173.95
2023-04-11T10:44:48.109Z,165.59
2023-04-11T10:45:48.101Z,164.89
2023-04-11T10:46:48.753Z,166.14
2023-04-11T10:47:48.077Z,165.69
2023-04-11T10:48:48.092Z,172.57
2023-04-11T10:49:48.096Z,175.13
2023-04-11T10:50:48.071Z,179.21
2023-04-11T10:51:48.034Z,181.92
2023-04-11T10:52:48.066Z,183.10
2023-04-11T10:53:48.077Z,184.25
2023-04-11T10:54:48.019Z,187.73
2023-04-11T10:55:48.064Z,186.39
2023-04-11T10:56:47.993Z,188.07
2023-04-11T10:57:48.004Z,190.76
2023-04-11T10:58:48.119Z,191.63
2023-04-11T10:59:47.994Z,192.69
2023-04-11T11:00:48.033Z,194.31
2023-04-11T11:01:52.414Z,191.13
2023-04-11T11:02:48.188Z,191.26
2023-04-11T11:03:48.075Z,192.61
2023-04-11T11:04:48.092Z,192.92
2023-04-11T11:05:47.960Z,196.96
2023-04-11T11:06:56.800Z,198.75
2023-04-11T11:07:48.924Z,191.40
2023-04-11T11:08:47.940Z,192.05
2023-04-11T11:09:47.907Z,193.05
2023-04-11T11:10:47.891Z,197.68
2023-04-11T11:11:47.936Z,201.13
2023-04-11T11:12:47.857Z,199.67
2023-04-11T11:13:47.861Z,193.76
2023-04-11T11:14:48.136Z,199.22
2023-04-11T11:15:47.863Z,201.99
2023-04-11T11:16:47.883Z,197.44
2023-04-11T11:17:47.881Z,195.34
2023-04-11T11:18:47.848Z,189.60
2023-04-11T11:19:47.908Z,188.15
2023-04-11T11:20:47.844Z,184.71
2023-04-11T11:21:47.870Z,176.85
2023-04-11T11:22:47.875Z,173.31
2023-04-11T11:23:48.103Z,145.43
2023-04-11T11:24:47.928Z,145.02
2023-04-11T11:25:47.933Z,137.45
2023-04-11T11:26:47.970Z,135.44
2023-04-11T11:27:47.972Z,132.91
2023-04-11T11:28:48.006Z,129.36
2023-04-11T11:29:47.982Z,129.45
2023-04-11T11:30:48.023Z,127.75
2023-04-11T11:31:48.120Z,127.07
2023-04-11T11:32:48.057Z,128.41
2023-04-11T11:33:48.084Z,123.56
2023-04-11T11:34:48.117Z,125.16
2023-04-11T11:35:48.121Z,120.74
2023-04-11T11:36:48.193Z,118.35
2023-04-11T11:37:48.200Z,114.69
2023-04-11T11:38:48.250Z,114.08
2023-04-11T11:39:48.266Z,107.02
2023-04-11T11:40:48.318Z,107.31
2023-04-11T11:41:48.342Z,113.79
2023-04-11T11:42:48.449Z,122.18
2023-04-11T11:43:48.441Z,113.21
2023-04-11T11:44:48.459Z,116.58
2023-04-11T11:45:48.548Z,110.84
2023-04-11T11:46:48.517Z,110.17
2023-04-11T11:47:48.613Z,103.20
2023-04-11T11:48:48.639Z,114.94
2023-04-11T11:49:48.698Z,107.20
2023-04-11T11:50:48.704Z,102.11
2023-04-11T11:51:48.784Z,98.42
2023-04-11T11:52:48.866Z,99.64
2023-04-11T11:53:48.876Z,94.78
2023-04-11T11:54:48.896Z,93.93
2023-04-11T11:55:48.964Z,90.42
2023-04-11T11:56:49.089Z,89.14
2023-04-11T11:57:49.070Z,88.01
2023-04-11T11:58:49.057Z,79.61
2023-04-11T11:59:49.128Z,81.40
2023-04-11T12:00:49.104Z,77.17
2023-04-11T12:01:49.226Z,67.25
2023-04-11T12:02:49.353Z,74.74
2023-04-11T12:03:49.422Z,87.78
2023-04-11T12:04:49.482Z,87.00
2023-04-11T12:05:49.314Z,77.66
2023-04-11T12:06:49.366Z,62.56
2023-04-11T12:07:49.383Z,55.54
2023-04-11T12:08:49.445Z,56.98
2023-04-11T12:09:49.529Z,58.61
2023-04-11T12:10:49.508Z,63.29
2023-04-11T12:11:49.526Z,60.00
2023-04-11T12:12:53.716Z,64.24
2023-04-11T12:13:49.574Z,64.38
2023-04-11T12:14:49.588Z,64.99
2023-04-11T12:15:49.590Z,64.54
2023-04-11T12:16:49.593Z,55.41
2023-04-11T12:17:49.604Z,50.77
2023-04-11T12:18:49.510Z,47.95
2023-04-11T12:19:49.539Z,43.37
2023-04-11T12:20:49.600Z,35.69
2023-04-11T12:21:49.530Z,30.49
2023-04-11T12:22:49.519Z,29.27
2023-04-11T12:23:49.532Z,28.36
2023-04-11T12:24:49.500Z,26.60
2023-04-11T12:25:49.602Z,25.32
2023-04-11T12:27:05.593Z,26.63
2023-04-11T12:27:50.477Z,26.23
2023-04-11T12:28:49.476Z,22.51
2023-04-11T12:29:49.482Z,18.45
2023-04-11T12:30:49.508Z,17.12
2023-04-11T12:31:49.496Z,18.58
2023-04-11T12:32:49.449Z,27.30
2023-04-11T12:33:49.420Z,26.40
2023-04-11T12:34:49.424Z,25.15
2023-04-11T12:35:49.421Z,28.75
2023-04-11T12:36:49.401Z,26.57
2023-04-11T12:37:49.427Z,33.69
2023-04-11T12:38:49.441Z,28.78
2023-04-11T12:39:49.472Z,28.81
2023-04-11T12:40:49.658Z,28.59